French Lick, IN

5:25 PM EDT on July 26, 2016 (GMT -0400)
fL | | Change Station

Elev 758 ft 38.53 °N, 86.65 °W | Updated 1 minute ago

Scattered Clouds
Scattered Clouds
87.2 °F
Feels Like 100 °F
N
0.0
Wind Variable Wind from NW
Gusts 4.0 mph

Today
High -- | Low -- °F
--% Chance of Precip.
Yesterday
High -- | Low -- °F
Precip. -- in
Pressure 29.97 in
Visibility 10.0 miles
Clouds Scattered Clouds 2900 ft
Heat Index 100 °F
Dew Point 78 °F
Humidity 74%
Rainfall 0.00 in
Snow Depth Not available.
6:43 AM 9:01 PM
Waning Gibbous, 51% visible
METAR KHNB 262115Z 28005KT 10SM SCT029 31/24 A2997 RMK AO1
Pressure 29.97 in
Visibility 10.0 miles
Clouds Scattered Clouds 2900 ft
Heat Index 100 °F
Dew Point 78 °F
Humidity 74%
Rainfall 0.00 in
Snow Depth Not available.
6:43 AM 9:01 PM
Waning Gibbous, 51% visible
METAR KHNB 262115Z 28005KT 10SM SCT029 31/24 A2997 RMK AO1

10-Day Weather Forecast

Almanac

Astronomy

Jul. 26, 2016 Rise Set
Actual Time
Civil Twilight
Nautical Twilight
Astronomical Twilight
Moon
Length of Visible Light
Length of Day
Tomorrow will be .
, % of the Moon is Illuminated

Today's Extremes

State Highs State Lows

Community

WunderPhotos

Upload Photos

1,927,702 photos uploaded!

WunderBlog® & News

Nearby

Air Quality

  Air Quality AQ Index Pollutant
Not available.

Snow Depth

Station Depth Elevation

Earthquake Activity

City Distance Mag. Time & Date
Minimum magnitude displayed is 2.5.

Coastal Water Temperatures

Place Temperature

Stations

Nearby Weather Stations

Station Location Temp. Windchill Dew Point Humidity Wind Precip. Elev Updated Type
                   

Watches & Warnings

There are currently no watches in effect.